sensor_id;sensor_type;location;lat;lon;timestamp;pressure;altitude;pressure_sealevel;temperature;humidity
11415;BME280;5763;42.714;23.244;2022-08-01T00:02:00;94502.13;;;20.30;57.94
11415;BME280;5763;42.714;23.244;2022-08-01T00:04:27;94502.44;;;20.21;58.44
11415;BME280;5763;42.714;23.244;2022-08-01T00:06:56;94501.94;;;20.23;58.22
11415;BME280;5763;42.714;23.244;2022-08-01T00:09:22;94501.19;;;20.22;58.05
11415;BME280;5763;42.714;23.244;2022-08-01T00:11:49;94493.31;;;20.26;58.09
11415;BME280;5763;42.714;23.244;2022-08-01T00:14:16;94498.94;;;20.21;58.06
11415;BME280;5763;42.714;23.244;2022-08-01T00:16:43;94500.94;;;20.20;57.86
11415;BME280;5763;42.714;23.244;2022-08-01T00:19:09;94491.81;;;20.25;57.77
11415;BME280;5763;42.714;23.244;2022-08-01T00:21:36;94498.59;;;20.30;57.31
11415;BME280;5763;42.714;23.244;2022-08-01T00:24:05;94504.63;;;20.34;56.98
11415;BME280;5763;42.714;23.244;2022-08-01T00:26:32;94500.78;;;20.42;56.24
11415;BME280;5763;42.714;23.244;2022-08-01T00:28:59;94500.97;;;20.50;55.71
11415;BME280;5763;42.714;23.244;2022-08-01T00:31:25;94499.66;;;20.56;54.97
11415;BME280;5763;42.714;23.244;2022-08-01T00:33:52;94501.84;;;20.63;54.86
11415;BME280;5763;42.714;23.244;2022-08-01T00:36:19;94501.28;;;20.70;55.61
11415;BME280;5763;42.714;23.244;2022-08-01T00:38:46;94504.81;;;20.71;57.20
11415;BME280;5763;42.714;23.244;2022-08-01T00:41:14;94503.19;;;20.81;57.33
11415;BME280;5763;42.714;23.244;2022-08-01T00:43:40;94514.63;;;20.77;57.45
11415;BME280;5763;42.714;23.244;2022-08-01T00:46:07;94512.16;;;20.68;58.08
11415;BME280;5763;42.714;23.244;2022-08-01T00:48:34;94502.38;;;20.62;58.38
11415;BME280;5763;42.714;23.244;2022-08-01T00:51:02;94490.31;;;20.54;58.74
11415;BME280;5763;42.714;23.244;2022-08-01T00:53:29;94494.38;;;20.53;59.00
11415;BME280;5763;42.714;23.244;2022-08-01T00:55:56;94497.56;;;20.62;59.26
11415;BME280;5763;42.714;23.244;2022-08-01T00:58:25;94500.53;;;20.70;59.00
11415;BME280;5763;42.714;23.244;2022-08-01T01:00:54;94482.28;;;20.74;58.58
11415;BME280;5763;42.714;23.244;2022-08-01T01:03:22;94481.06;;;20.70;58.73
11415;BME280;5763;42.714;23.244;2022-08-01T01:05:56;94474.00;;;20.69;58.29
11415;BME280;5763;42.714;23.244;2022-08-01T01:08:32;94472.72;;;20.70;58.26
11415;BME280;5763;42.714;23.244;2022-08-01T01:11:05;94471.44;;;20.71;58.17
11415;BME280;5763;42.714;23.244;2022-08-01T01:13:40;94480.25;;;20.75;57.38
11415;BME280;5763;42.714;23.244;2022-08-01T01:16:12;94475.56;;;20.64;57.23
11415;BME280;5763;42.714;23.244;2022-08-01T01:18:45;94472.53;;;20.62;55.98
11415;BME280;5763;42.714;23.244;2022-08-01T01:24:17;94482.13;;;20.67;54.50
11415;BME280;5763;42.714;23.244;2022-08-01T01:26:52;94468.47;;;20.63;54.60
11415;BME280;5763;42.714;23.244;2022-08-01T01:29:27;94465.75;;;20.58;54.14
11415;BME280;5763;42.714;23.244;2022-08-01T01:31:57;94459.50;;;20.52;53.74
11415;BME280;5763;42.714;23.244;2022-08-01T01:34:27;94464.38;;;20.46;53.47
11415;BME280;5763;42.714;23.244;2022-08-01T01:36:56;94459.88;;;20.37;53.43
11415;BME280;5763;42.714;23.244;2022-08-01T01:39:25;94456.81;;;20.11;54.73
11415;BME280;5763;42.714;23.244;2022-08-01T01:41:55;94454.38;;;19.97;54.94
11415;BME280;5763;42.714;23.244;2022-08-01T01:44:25;94448.34;;;19.93;54.38
11415;BME280;5763;42.714;23.244;2022-08-01T01:46:53;94444.75;;;19.98;54.37
11415;BME280;5763;42.714;23.244;2022-08-01T01:49:23;94449.84;;;19.94;54.22
11415;BME280;5763;42.714;23.244;2022-08-01T01:51:53;94442.03;;;19.92;54.11
11415;BME280;5763;42.714;23.244;2022-08-01T01:54:22;94444.84;;;19.87;53.74
11415;BME280;5763;42.714;23.244;2022-08-01T01:56:51;94444.66;;;19.79;53.57
11415;BME280;5763;42.714;23.244;2022-08-01T01:59:20;94444.13;;;19.81;53.34
11415;BME280;5763;42.714;23.244;2022-08-01T02:01:51;94446.66;;;19.79;53.32
11415;BME280;5763;42.714;23.244;2022-08-01T02:04:20;94438.31;;;19.79;53.04
11415;BME280;5763;42.714;23.244;2022-08-01T02:06:50;94438.31;;;19.79;53.19
11415;BME280;5763;42.714;23.244;2022-08-01T02:09:19;94442.09;;;19.81;53.00
11415;BME280;5763;42.714;23.244;2022-08-01T02:11:48;94443.16;;;19.73;52.83
11415;BME280;5763;42.714;23.244;2022-08-01T02:14:17;94434.19;;;19.61;52.17
11415;BME280;5763;42.714;23.244;2022-08-01T02:16:47;94428.88;;;19.58;52.17
11415;BME280;5763;42.714;23.244;2022-08-01T02:19:17;94430.63;;;19.61;51.92
11415;BME280;5763;42.714;23.244;2022-08-01T02:21:48;94429.63;;;19.58;51.86
11415;BME280;5763;42.714;23.244;2022-08-01T02:24:21;94430.66;;;19.55;52.28
11415;BME280;5763;42.714;23.244;2022-08-01T02:26:52;94421.88;;;19.46;52.84
11415;BME280;5763;42.714;23.244;2022-08-01T02:29:29;94435.78;;;19.46;53.04
11415;BME280;5763;42.714;23.244;2022-08-01T02:32:00;94429.25;;;19.38;53.11
11415;BME280;5763;42.714;23.244;2022-08-01T02:34:30;94431.56;;;19.28;53.11
11415;BME280;5763;42.714;23.244;2022-08-01T02:36:59;94436.66;;;19.19;52.92
11415;BME280;5763;42.714;23.244;2022-08-01T02:39:28;94437.44;;;19.14;52.60
11415;BME280;5763;42.714;23.244;2022-08-01T02:42:02;94434.66;;;19.14;52.21
11415;BME280;5763;42.714;23.244;2022-08-01T02:44:36;94433.13;;;19.24;51.62
11415;BME280;5763;42.714;23.244;2022-08-01T02:47:04;94434.84;;;19.27;51.90
11415;BME280;5763;42.714;23.244;2022-08-01T02:49:35;94438.13;;;19.31;51.70
11415;BME280;5763;42.714;23.244;2022-08-01T02:52:06;94435.78;;;19.46;52.21
11415;BME280;5763;42.714;23.244;2022-08-01T02:54:35;94429.94;;;19.49;52.58
11415;BME280;5763;42.714;23.244;2022-08-01T02:57:03;94420.31;;;19.56;51.27
11415;BME280;5763;42.714;23.244;2022-08-01T02:59:31;94425.09;;;19.61;51.61
11415;BME280;5763;42.714;23.244;2022-08-01T03:02:01;94417.94;;;19.71;51.39
11415;BME280;5763;42.714;23.244;2022-08-01T03:04:34;94416.19;;;19.68;52.35
11415;BME280;5763;42.714;23.244;2022-08-01T03:07:04;94436.34;;;19.74;52.69
11415;BME280;5763;42.714;23.244;2022-08-01T03:09:36;94429.78;;;19.77;53.42
11415;BME280;5763;42.714;23.244;2022-08-01T03:12:07;94424.22;;;19.77;53.52
11415;BME280;5763;42.714;23.244;2022-08-01T03:14:37;94415.91;;;19.71;52.93
11415;BME280;5763;42.714;23.244;2022-08-01T03:17:05;94427.69;;;19.83;52.59
11415;BME280;5763;42.714;23.244;2022-08-01T03:19:36;94433.25;;;19.83;52.89
11415;BME280;5763;42.714;23.244;2022-08-01T03:22:05;94430.72;;;19.85;53.87
11415;BME280;5763;42.714;23.244;2022-08-01T03:24:34;94435.50;;;19.90;53.79
11415;BME280;5763;42.714;23.244;2022-08-01T03:27:04;94438.28;;;19.90;54.71
11415;BME280;5763;42.714;23.244;2022-08-01T03:29:31;94424.63;;;19.86;54.25
11415;BME280;5763;42.714;23.244;2022-08-01T03:32:00;94442.25;;;20.00;54.75
11415;BME280;5763;42.714;23.244;2022-08-01T03:34:27;94435.94;;;19.94;54.67
11415;BME280;5763;42.714;23.244;2022-08-01T03:37:12;94429.69;;;19.88;55.27
11415;BME280;5763;42.714;23.244;2022-08-01T03:39:58;94430.78;;;19.74;53.35
11415;BME280;5763;42.714;23.244;2022-08-01T03:42:31;94441.91;;;19.74;52.84
11415;BME280;5763;42.714;23.244;2022-08-01T03:44:59;94430.59;;;19.66;52.56
11415;BME280;5763;42.714;23.244;2022-08-01T03:47:31;94431.34;;;19.67;52.78
11415;BME280;5763;42.714;23.244;2022-08-01T03:49:59;94429.88;;;19.60;52.47
11415;BME280;5763;42.714;23.244;2022-08-01T03:52:29;94433.63;;;19.68;52.02
11415;BME280;5763;42.714;23.244;2022-08-01T03:54:58;94429.56;;;19.69;51.94
11415;BME280;5763;42.714;23.244;2022-08-01T03:57:27;94427.78;;;19.72;51.35
11415;BME280;5763;42.714;23.244;2022-08-01T03:59:55;94434.56;;;19.76;50.86
11415;BME280;5763;42.714;23.244;2022-08-01T04:02:23;94431.84;;;19.71;50.89
11415;BME280;5763;42.714;23.244;2022-08-01T04:04:50;94439.09;;;19.79;50.36
11415;BME280;5763;42.714;23.244;2022-08-01T04:07:24;94440.78;;;19.88;50.02
11415;BME280;5763;42.714;23.244;2022-08-01T04:09:53;94437.22;;;19.93;50.48
11415;BME280;5763;42.714;23.244;2022-08-01T04:12:20;94445.03;;;19.94;50.30
11415;BME280;5763;42.714;23.244;2022-08-01T04:14:47;94437.22;;;19.93;50.92
11415;BME280;5763;42.714;23.244;2022-08-01T04:17:14;94445.03;;;19.94;50.91
11415;BME280;5763;42.714;23.244;2022-08-01T04:19:41;94450.50;;;20.05;51.02
11415;BME280;5763;42.714;23.244;2022-08-01T04:22:09;94441.94;;;20.03;50.23
11415;BME280;5763;42.714;23.244;2022-08-01T04:24:36;94440.41;;;20.08;50.08
11415;BME280;5763;42.714;23.244;2022-08-01T04:27:09;94447.66;;;20.16;49.89
11415;BME280;5763;42.714;23.244;2022-08-01T04:29:38;94445.38;;;20.20;49.85
11415;BME280;5763;42.714;23.244;2022-08-01T04:32:05;94442.81;;;20.22;49.58
11415;BME280;5763;42.714;23.244;2022-08-01T04:34:33;94447.31;;;20.31;51.08
11415;BME280;5763;42.714;23.244;2022-08-01T04:37:02;94450.53;;;20.35;52.78
11415;BME280;5763;42.714;23.244;2022-08-01T04:39:33;94450.63;;;20.24;54.54
11415;BME280;5763;42.714;23.244;2022-08-01T04:42:04;94450.41;;;20.22;56.21
11415;BME280;5763;42.714;23.244;2022-08-01T04:44:33;94453.75;;;20.15;57.26
11415;BME280;5763;42.714;23.244;2022-08-01T04:47:00;94459.06;;;20.13;57.38
11415;BME280;5763;42.714;23.244;2022-08-01T04:49:29;94458.09;;;20.10;57.52
11415;BME280;5763;42.714;23.244;2022-08-01T04:51:56;94458.13;;;19.99;56.96
11415;BME280;5763;42.714;23.244;2022-08-01T04:54:25;94459.09;;;20.07;57.28
11415;BME280;5763;42.714;23.244;2022-08-01T04:56:53;94458.09;;;20.10;57.19
11415;BME280;5763;42.714;23.244;2022-08-01T04:59:21;94453.75;;;20.15;56.68
11415;BME280;5763;42.714;23.244;2022-08-01T05:02:08;94453.47;;;20.18;57.90
11415;BME280;5763;42.714;23.244;2022-08-01T05:04:36;94455.53;;;20.12;58.57
11415;BME280;5763;42.714;23.244;2022-08-01T05:07:03;94456.31;;;20.07;59.28
11415;BME280;5763;42.714;23.244;2022-08-01T05:09:31;94448.19;;;20.15;59.19
11415;BME280;5763;42.714;23.244;2022-08-01T05:11:58;94450.75;;;20.13;59.51
11415;BME280;5763;42.714;23.244;2022-08-01T05:14:26;94442.63;;;20.15;59.27
11415;BME280;5763;42.714;23.244;2022-08-01T05:16:52;94442.88;;;20.17;59.04
11415;BME280;5763;42.714;23.244;2022-08-01T05:19:21;94449.09;;;20.28;58.30
11415;BME280;5763;42.714;23.244;2022-08-01T05:21:47;94458.16;;;20.34;58.58
11415;BME280;5763;42.714;23.244;2022-08-01T05:24:14;94459.13;;;20.37;58.96
11415;BME280;5763;42.714;23.244;2022-08-01T05:26:41;94457.63;;;20.36;58.23
11415;BME280;5763;42.714;23.244;2022-08-01T05:29:08;94449.69;;;20.45;58.15
11415;BME280;5763;42.714;23.244;2022-08-01T05:31:35;94449.06;;;20.58;58.11
11415;BME280;5763;42.714;23.244;2022-08-01T05:34:02;94447.28;;;20.60;57.97
11415;BME280;5763;42.714;23.244;2022-08-01T05:36:31;94435.19;;;20.58;58.08
11415;BME280;5763;42.714;23.244;2022-08-01T05:38:58;94449.94;;;20.71;57.64
11415;BME280;5763;42.714;23.244;2022-08-01T05:41:25;94446.34;;;20.76;57.03
11415;BME280;5763;42.714;23.244;2022-08-01T05:43:52;94456.63;;;20.87;56.46
11415;BME280;5763;42.714;23.244;2022-08-01T05:46:20;94460.88;;;20.93;56.23
11415;BME280;5763;42.714;23.244;2022-08-01T05:48:47;94458.34;;;20.95;55.92
11415;BME280;5763;42.714;23.244;2022-08-01T05:51:13;94457.94;;;21.04;55.98
11415;BME280;5763;42.714;23.244;2022-08-01T05:53:41;94455.16;;;21.04;55.27
11415;BME280;5763;42.714;23.244;2022-08-01T05:56:09;94454.31;;;21.15;53.10
11415;BME280;5763;42.714;23.244;2022-08-01T05:58:36;94461.84;;;21.20;53.25
11415;BME280;5763;42.714;23.244;2022-08-01T06:01:02;94454.47;;;21.22;50.81
11415;BME280;5763;42.714;23.244;2022-08-01T06:03:29;94456.06;;;21.36;49.05
11415;BME280;5763;42.714;23.244;2022-08-01T06:05:58;94449.06;;;21.48;46.96
11415;BME280;5763;42.714;23.244;2022-08-01T06:08:25;94456.59;;;21.53;46.57
11415;BME280;5763;42.714;23.244;2022-08-01T06:10:53;94448.09;;;21.46;45.84
11415;BME280;5763;42.714;23.244;2022-08-01T06:13:20;94437.03;;;21.59;46.53
11415;BME280;5763;42.714;23.244;2022-08-01T06:15:47;94458.66;;;21.71;46.22
11415;BME280;5763;42.714;23.244;2022-08-01T06:18:17;94447.44;;;21.77;45.34
11415;BME280;5763;42.714;23.244;2022-08-01T06:20:44;94445.16;;;21.75;45.94
11415;BME280;5763;42.714;23.244;2022-08-01T06:23:11;94449.25;;;21.74;45.44
11415;BME280;5763;42.714;23.244;2022-08-01T06:25:39;94452.84;;;21.88;45.60
11415;BME280;5763;42.714;23.244;2022-08-01T06:28:07;94453.09;;;21.90;44.82
11415;BME280;5763;42.714;23.244;2022-08-01T06:30:35;94442.31;;;21.81;44.90
11415;BME280;5763;42.714;23.244;2022-08-01T06:33:12;94453.22;;;21.97;45.17
11415;BME280;5763;42.714;23.244;2022-08-01T06:35:40;94442.50;;;22.01;44.71
11415;BME280;5763;42.714;23.244;2022-08-01T06:38:07;94439.63;;;22.07;43.78
11415;BME280;5763;42.714;23.244;2022-08-01T06:40:34;94449.75;;;22.10;44.66
11415;BME280;5763;42.714;23.244;2022-08-01T06:43:01;94444.75;;;22.03;44.46
11415;BME280;5763;42.714;23.244;2022-08-01T06:45:29;94448.22;;;22.09;44.60
11415;BME280;5763;42.714;23.244;2022-08-01T06:47:56;94437.63;;;22.07;44.65
11415;BME280;5763;42.714;23.244;2022-08-01T06:50:23;94433.66;;;22.16;44.98
11415;BME280;5763;42.714;23.244;2022-08-01T06:52:50;94427.72;;;22.06;43.78
11415;BME280;5763;42.714;23.244;2022-08-01T06:55:17;94418.94;;;22.02;44.29
11415;BME280;5763;42.714;23.244;2022-08-01T06:57:46;94429.84;;;22.00;45.04
11415;BME280;5763;42.714;23.244;2022-08-01T07:00:13;94430.22;;;22.10;45.42
11415;BME280;5763;42.714;23.244;2022-08-01T07:02:43;94427.84;;;22.14;45.48
11415;BME280;5763;42.714;23.244;2022-08-01T07:05:10;94418.69;;;22.32;45.54
11415;BME280;5763;42.714;23.244;2022-08-01T07:07:37;94416.34;;;22.36;45.11
11415;BME280;5763;42.714;23.244;2022-08-01T07:10:05;94413.13;;;22.32;45.22
11415;BME280;5763;42.714;23.244;2022-08-01T07:12:33;94418.81;;;22.39;45.70
11415;BME280;5763;42.714;23.244;2022-08-01T07:15:02;94422.22;;;22.51;44.28
11415;BME280;5763;42.714;23.244;2022-08-01T07:17:29;94420.28;;;22.59;44.39
11415;BME280;5763;42.714;23.244;2022-08-01T07:19:57;94418.56;;;22.69;44.67
11415;BME280;5763;42.714;23.244;2022-08-01T07:22:24;94416.97;;;22.86;43.93
11415;BME280;5763;42.714;23.244;2022-08-01T07:24:50;94424.16;;;22.95;44.33
11415;BME280;5763;42.714;23.244;2022-08-01T07:27:18;94410.22;;;22.95;44.55
11415;BME280;5763;42.714;23.244;2022-08-01T07:29:45;94425.56;;;23.01;43.65
11415;BME280;5763;42.714;23.244;2022-08-01T07:32:12;94420.28;;;23.11;42.53
11415;BME280;5763;42.714;23.244;2022-08-01T07:34:38;94440.28;;;23.02;42.50
11415;BME280;5763;42.714;23.244;2022-08-01T07:37:06;94433.94;;;22.88;42.97
11415;BME280;5763;42.714;23.244;2022-08-01T07:39:33;94437.25;;;23.00;43.92
11415;BME280;5763;42.714;23.244;2022-08-01T07:42:00;94435.22;;;23.13;44.16
11415;BME280;5763;42.714;23.244;2022-08-01T07:44:27;94424.91;;;23.34;43.18
11415;BME280;5763;42.714;23.244;2022-08-01T07:46:53;94445.00;;;23.46;42.92
11415;BME280;5763;42.714;23.244;2022-08-01T07:49:20;94422.22;;;23.42;42.46
11415;BME280;5763;42.714;23.244;2022-08-01T07:51:47;94429.09;;;23.54;41.75
11415;BME280;5763;42.714;23.244;2022-08-01T07:54:15;94440.38;;;23.61;41.95
11415;BME280;5763;42.714;23.244;2022-08-01T07:56:42;94434.69;;;23.54;42.31
11415;BME280;5763;42.714;23.244;2022-08-01T07:59:09;94429.72;;;23.60;42.16
11415;BME280;5763;42.714;23.244;2022-08-01T08:01:35;94436.38;;;23.57;42.43
11415;BME280;5763;42.714;23.244;2022-08-01T08:04:03;94418.09;;;23.69;41.56
11415;BME280;5763;42.714;23.244;2022-08-01T08:06:30;94430.16;;;23.64;41.74
11415;BME280;5763;42.714;23.244;2022-08-01T08:08:56;94432.50;;;23.60;41.52
11415;BME280;5763;42.714;23.244;2022-08-01T08:11:24;94436.38;;;23.57;42.19
11415;BME280;5763;42.714;23.244;2022-08-01T08:13:51;94443.34;;;23.63;41.41
11415;BME280;5763;42.714;23.244;2022-08-01T08:16:18;94427.22;;;23.69;41.54
11415;BME280;5763;42.714;23.244;2022-08-01T08:18:46;94437.94;;;23.78;41.41
11415;BME280;5763;42.714;23.244;2022-08-01T08:21:12;94434.09;;;23.68;41.80
11415;BME280;5763;42.714;23.244;2022-08-01T08:23:39;94427.09;;;23.75;41.65
11415;BME280;5763;42.714;23.244;2022-08-01T08:26:24;94434.00;;;23.61;40.96
11415;BME280;5763;42.714;23.244;2022-08-01T08:28:52;94425.28;;;23.64;41.42
11415;BME280;5763;42.714;23.244;2022-08-01T08:31:19;94429.00;;;23.93;42.42
11415;BME280;5763;42.714;23.244;2022-08-01T08:33:45;94432.16;;;24.10;41.93
11415;BME280;5763;42.714;23.244;2022-08-01T08:36:13;94430.78;;;24.24;39.40
11415;BME280;5763;42.714;23.244;2022-08-01T08:38:40;94431.97;;;24.28;38.58
11415;BME280;5763;42.714;23.244;2022-08-01T08:41:07;94431.88;;;24.41;40.29
11415;BME280;5763;42.714;23.244;2022-08-01T08:43:36;94427.81;;;24.63;40.59
11415;BME280;5763;42.714;23.244;2022-08-01T08:46:03;94429.97;;;24.77;39.12
11415;BME280;5763;42.714;23.244;2022-08-01T08:48:31;94439.44;;;24.67;36.98
11415;BME280;5763;42.714;23.244;2022-08-01T08:51:00;94429.91;;;24.70;37.81
11415;BME280;5763;42.714;23.244;2022-08-01T08:53:27;94437.88;;;24.86;38.54
11415;BME280;5763;42.714;23.244;2022-08-01T08:55:56;94428.72;;;24.86;36.96
11415;BME280;5763;42.714;23.244;2022-08-01T08:58:25;94433.06;;;24.87;37.74
11415;BME280;5763;42.714;23.244;2022-08-01T09:00:54;94421.59;;;25.05;38.02
11415;BME280;5763;42.714;23.244;2022-08-01T09:03:21;94419.44;;;25.19;38.24
11415;BME280;5763;42.714;23.244;2022-08-01T09:05:47;94417.28;;;25.32;38.55
11415;BME280;5763;42.714;23.244;2022-08-01T09:08:14;94423.88;;;25.42;35.80
11415;BME280;5763;42.714;23.244;2022-08-01T09:10:41;94418.00;;;25.25;35.50
11415;BME280;5763;42.714;23.244;2022-08-01T09:13:09;94422.94;;;25.40;35.04
11415;BME280;5763;42.714;23.244;2022-08-01T09:15:41;94408.53;;;25.36;32.43
11415;BME280;5763;42.714;23.244;2022-08-01T09:18:25;94417.69;;;25.36;32.97
11415;BME280;5763;42.714;23.244;2022-08-01T09:21:07;94415.06;;;25.38;33.88
11415;BME280;5763;42.714;23.244;2022-08-01T09:23:35;94406.00;;;25.53;35.20
11415;BME280;5763;42.714;23.244;2022-08-01T09:26:05;94406.94;;;25.63;34.66
11415;BME280;5763;42.714;23.244;2022-08-01T09:28:32;94400.28;;;25.81;34.38
11415;BME280;5763;42.714;23.244;2022-08-01T09:31:05;94401.47;;;25.93;34.25
11415;BME280;5763;42.714;23.244;2022-08-01T09:33:49;94388.78;;;25.99;34.15
11415;BME280;5763;42.714;23.244;2022-08-01T09:36:16;94394.78;;;26.11;34.99
11415;BME280;5763;42.714;23.244;2022-08-01T09:38:43;94386.19;;;26.39;35.60
11415;BME280;5763;42.714;23.244;2022-08-01T09:41:10;94394.63;;;26.39;34.64
11415;BME280;5763;42.714;23.244;2022-08-01T09:43:37;94388.28;;;26.46;35.41
11415;BME280;5763;42.714;23.244;2022-08-01T09:46:05;94396.34;;;26.57;35.39
11415;BME280;5763;42.714;23.244;2022-08-01T09:48:35;94396.91;;;26.63;34.36
11415;BME280;5763;42.714;23.244;2022-08-01T09:51:06;94393.94;;;26.76;34.78
11415;BME280;5763;42.714;23.244;2022-08-01T09:53:46;94395.91;;;27.13;34.82
11415;BME280;5763;42.714;23.244;2022-08-01T09:56:14;94390.28;;;27.35;34.40
11415;BME280;5763;42.714;23.244;2022-08-01T09:58:58;94395.00;;;27.18;34.28
11415;BME280;5763;42.714;23.244;2022-08-01T10:01:26;94393.66;;;27.26;34.89
11415;BME280;5763;42.714;23.244;2022-08-01T10:04:07;94392.06;;;27.55;33.27
11415;BME280;5763;42.714;23.244;2022-08-01T10:06:36;94398.38;;;27.71;32.68
11415;BME280;5763;42.714;23.244;2022-08-01T10:09:03;94388.66;;;27.64;32.39
11415;BME280;5763;42.714;23.244;2022-08-01T10:11:31;94397.25;;;27.74;32.08
11415;BME280;5763;42.714;23.244;2022-08-01T10:13:59;94403.59;;;27.82;31.33
11415;BME280;5763;42.714;23.244;2022-08-01T10:16:28;94407.50;;;27.94;32.45
11415;BME280;5763;42.714;23.244;2022-08-01T10:18:56;94396.41;;;27.96;32.12
11415;BME280;5763;42.714;23.244;2022-08-01T10:21:25;94376.50;;;28.01;31.44
11415;BME280;5763;42.714;23.244;2022-08-01T10:23:55;94383.66;;;27.95;31.87
11415;BME280;5763;42.714;23.244;2022-08-01T10:26:25;94384.56;;;27.58;31.76
11415;BME280;5763;42.714;23.244;2022-08-01T10:28:53;94381.81;;;27.43;33.50
11415;BME280;5763;42.714;23.244;2022-08-01T10:31:20;94376.75;;;27.41;33.59
11415;BME280;5763;42.714;23.244;2022-08-01T10:33:48;94387.19;;;27.56;34.31
11415;BME280;5763;42.714;23.244;2022-08-01T10:36:17;94385.03;;;27.86;33.17
11415;BME280;5763;42.714;23.244;2022-08-01T10:38:45;94385.81;;;28.11;31.07
11415;BME280;5763;42.714;23.244;2022-08-01T10:41:15;94368.47;;;28.22;30.16
11415;BME280;5763;42.714;23.244;2022-08-01T10:43:42;94373.63;;;28.09;30.83
11415;BME280;5763;42.714;23.244;2022-08-01T10:46:10;94376.78;;;28.13;32.29
11415;BME280;5763;42.714;23.244;2022-08-01T10:48:43;94372.53;;;28.29;31.96
11415;BME280;5763;42.714;23.244;2022-08-01T10:51:11;94374.78;;;28.30;32.35
11415;BME280;5763;42.714;23.244;2022-08-01T10:53:46;94366.91;;;28.29;31.41
11415;BME280;5763;42.714;23.244;2022-08-01T10:56:14;94368.28;;;28.52;31.12
11415;BME280;5763;42.714;23.244;2022-08-01T10:58:43;94375.53;;;28.80;32.37
11415;BME280;5763;42.714;23.244;2022-08-01T11:01:19;94372.97;;;28.99;31.93
11415;BME280;5763;42.714;23.244;2022-08-01T11:03:58;94367.31;;;29.16;30.54
11415;BME280;5763;42.714;23.244;2022-08-01T11:06:28;94364.34;;;29.31;29.47
11415;BME280;5763;42.714;23.244;2022-08-01T11:09:04;94365.44;;;29.35;29.54
11415;BME280;5763;42.714;23.244;2022-08-01T11:12:03;94357.72;;;29.36;29.29
11415;BME280;5763;42.714;23.244;2022-08-01T11:14:35;94350.16;;;29.21;29.53
11415;BME280;5763;42.714;23.244;2022-08-01T11:17:31;94349.91;;;29.44;29.42
11415;BME280;5763;42.714;23.244;2022-08-01T11:20:05;94359.38;;;29.73;30.34
11415;BME280;5763;42.714;23.244;2022-08-01T11:26:19;94346.41;;;29.70;29.25
11415;BME280;5763;42.714;23.244;2022-08-01T11:29:18;94357.38;;;29.83;29.50
11415;BME280;5763;42.714;23.244;2022-08-01T11:31:45;94356.19;;;29.86;28.57
11415;BME280;5763;42.714;23.244;2022-08-01T11:34:12;94354.03;;;29.77;28.66
11415;BME280;5763;42.714;23.244;2022-08-01T11:36:38;94341.72;;;29.82;28.45
11415;BME280;5763;42.714;23.244;2022-08-01T11:39:14;94357.88;;;29.98;29.06
11415;BME280;5763;42.714;23.244;2022-08-01T11:41:43;94336.16;;;30.18;29.13
11415;BME280;5763;42.714;23.244;2022-08-01T11:44:12;94338.03;;;30.32;29.43
11415;BME280;5763;42.714;23.244;2022-08-01T11:46:56;94341.88;;;30.27;28.52
11415;BME280;5763;42.714;23.244;2022-08-01T11:52:11;94346.72;;;30.17;29.11
11415;BME280;5763;42.714;23.244;2022-08-01T11:54:40;94344.63;;;30.18;28.22
11415;BME280;5763;42.714;23.244;2022-08-01T11:57:10;94352.09;;;30.23;29.12
11415;BME280;5763;42.714;23.244;2022-08-01T11:59:39;94339.44;;;30.50;30.06
11415;BME280;5763;42.714;23.244;2022-08-01T12:02:20;94336.78;;;30.62;29.99
11415;BME280;5763;42.714;23.244;2022-08-01T12:04:55;94354.41;;;30.70;28.48
11415;BME280;5763;42.714;23.244;2022-08-01T12:07:23;94331.38;;;30.83;28.90
11415;BME280;5763;42.714;23.244;2022-08-01T12:09:57;94334.66;;;30.89;28.70
11415;BME280;5763;42.714;23.244;2022-08-01T12:12:25;94325.13;;;30.84;27.32
11415;BME280;5763;42.714;23.244;2022-08-01T12:14:54;94333.28;;;30.35;27.76
11415;BME280;5763;42.714;23.244;2022-08-01T12:17:32;94337.69;;;30.02;28.92
11415;BME280;5763;42.714;23.244;2022-08-01T12:19:59;94335.69;;;30.12;30.05
11415;BME280;5763;42.714;23.244;2022-08-01T12:22:26;94336.25;;;30.37;28.63
11415;BME280;5763;42.714;23.244;2022-08-01T12:24:53;94338.97;;;30.54;27.76
11415;BME280;5763;42.714;23.244;2022-08-01T12:27:24;94335.31;;;30.61;27.69
11415;BME280;5763;42.714;23.244;2022-08-01T12:29:51;94326.00;;;30.77;28.57
11415;BME280;5763;42.714;23.244;2022-08-01T12:32:24;94329.16;;;30.91;28.17
11415;BME280;5763;42.714;23.244;2022-08-01T12:34:53;94328.41;;;31.00;27.42
11415;BME280;5763;42.714;23.244;2022-08-01T12:37:21;94325.91;;;31.04;27.06
11415;BME280;5763;42.714;23.244;2022-08-01T12:39:48;94331.09;;;30.98;27.53
11415;BME280;5763;42.714;23.244;2022-08-01T12:42:15;94337.50;;;30.98;27.95
11415;BME280;5763;42.714;23.244;2022-08-01T12:44:45;94331.72;;;31.06;27.88
11415;BME280;5763;42.714;23.244;2022-08-01T12:47:12;94327.38;;;30.86;27.69
11415;BME280;5763;42.714;23.244;2022-08-01T12:49:41;94324.69;;;30.88;28.81
11415;BME280;5763;42.714;23.244;2022-08-01T12:52:11;94326.16;;;30.89;28.38
11415;BME280;5763;42.714;23.244;2022-08-01T12:55:00;94331.56;;;31.04;27.82
11415;BME280;5763;42.714;23.244;2022-08-01T12:57:27;94321.13;;;31.06;27.46
11415;BME280;5763;42.714;23.244;2022-08-01T13:00:05;94323.34;;;30.89;27.10
11415;BME280;5763;42.714;23.244;2022-08-01T13:02:33;94324.06;;;30.80;27.92
11415;BME280;5763;42.714;23.244;2022-08-01T13:05:00;94314.88;;;30.89;27.78
11415;BME280;5763;42.714;23.244;2022-08-01T13:07:40;94322.94;;;31.02;27.60
11415;BME280;5763;42.714;23.244;2022-08-01T13:10:07;94325.72;;;30.92;27.82
11415;BME280;5763;42.714;23.244;2022-08-01T13:12:34;94316.19;;;30.78;27.92
11415;BME280;5763;42.714;23.244;2022-08-01T13:15:20;94316.94;;;30.33;27.71
11415;BME280;5763;42.714;23.244;2022-08-01T13:17:47;94313.88;;;30.58;28.85
11415;BME280;5763;42.714;23.244;2022-08-01T13:20:28;94311.47;;;30.45;28.02
11415;BME280;5763;42.714;23.244;2022-08-01T13:23:10;94316.88;;;30.60;28.50